Time;durP1;ratioP1;P1;durP2;ratioP2;P2;SDS_P1;SDS_P2;PMS_P1;PMS_P2;Temp;Humidity;BMP_temperature;BMP_pressure;BME280_temperature;BME280_humidity;BME280_pressure;Samples;Min_cycle;Max_cycle;Signal;HPM_P1;HPM_P2
2023/01/29 00:02:08;;;;;;;1.40;1.30;;;;;;;;;;4593396;27;20039;-64
2023/01/29 00:04:19;;;;;;;2.97;2.78;;;;;;;;;;4593372;27;20031;-64
2023/01/29 00:06:29;;;;;;;5.20;4.80;;;;;;;;;;4592522;27;20035;-64
2023/01/29 00:08:39;;;;;;;5.05;4.55;;;;;;;;;;4593358;27;20036;-64
2023/01/29 00:10:50;;;;;;;5.38;4.97;;;;;;;;;;4594408;27;20130;-64
2023/01/29 00:13:00;;;;;;;5.28;4.88;;;;;;;;;;4594962;27;20039;-64
2023/01/29 00:15:11;;;;;;;5.53;5.13;;;;;;;;;;4594537;27;20046;-65
2023/01/29 00:17:21;;;;;;;6.05;5.55;;;;;;;;;;4594281;27;20051;-64
2023/01/29 00:19:31;;;;;;;5.80;5.30;;;;;;;;;;4594914;27;20039;-64
2023/01/29 00:21:42;;;;;;;5.97;5.47;;;;;;;;;;4592593;27;20067;-64
2023/01/29 00:23:54;;;;;;;5.60;5.13;;;;;;;;;;4594320;27;20682;-64
2023/01/29 00:26:04;;;;;;;5.57;5.07;;;;;;;;;;4591973;27;20667;-64
2023/01/29 00:28:15;;;;;;;5.63;5.13;;;;;;;;;;4594938;27;20062;-64
2023/01/29 00:30:25;;;;;;;5.97;5.47;;;;;;;;;;4592540;27;20043;-64
2023/01/29 00:32:35;;;;;;;5.57;5.07;;;;;;;;;;4595082;27;20036;-64
2023/01/29 00:34:46;;;;;;;6.28;5.78;;;;;;;;;;4592924;27;20500;-63
2023/01/29 00:37:03;;;;;;;6.00;5.50;;;;;;;;;;4579477;27;20070;-64
2023/01/29 00:39:13;;;;;;;5.47;4.97;;;;;;;;;;4591900;27;20031;-64
2023/01/29 00:46:25;;;;;;;6.28;5.78;;;;;;;;;;4580431;27;20189;-64
2023/01/29 00:48:36;;;;;;;5.68;5.18;;;;;;;;;;4593304;27;20105;-64
2023/01/29 00:50:46;;;;;;;5.60;5.10;;;;;;;;;;4593382;27;20043;-63
2023/01/29 00:52:56;;;;;;;5.90;5.40;;;;;;;;;;4593917;27;20071;-64
2023/01/29 00:55:09;;;;;;;6.15;5.65;;;;;;;;;;4591350;27;20502;-64
2023/01/29 00:57:19;;;;;;;5.47;5.00;;;;;;;;;;4579670;27;20028;-64
2023/01/29 00:59:30;;;;;;;5.80;5.30;;;;;;;;;;4594173;27;20035;-64
2023/01/29 01:04:10;;;;;;;5.72;5.22;;;;;;;;;;4611345;27;20538;-63
2023/01/29 01:06:21;;;;;;;5.93;5.43;;;;;;;;;;4595701;27;20112;-63
2023/01/29 01:11:02;;;;;;;5.97;5.47;;;;;;;;;;4596909;27;20039;-64
2023/01/29 01:13:12;;;;;;;6.20;5.70;;;;;;;;;;4596828;27;20035;-64
2023/01/29 01:15:24;;;;;;;6.32;5.72;;;;;;;;;;4595295;27;20043;-64
2023/01/29 01:17:35;;;;;;;5.90;5.40;;;;;;;;;;4596207;27;20040;-64
2023/01/29 01:19:45;;;;;;;5.60;5.10;;;;;;;;;;4595085;27;20036;-63
2023/01/29 01:21:55;;;;;;;6.00;5.45;;;;;;;;;;4595624;27;20050;-64
2023/01/29 01:24:06;;;;;;;5.78;5.28;;;;;;;;;;4594739;27;20040;-64
2023/01/29 01:26:16;;;;;;;5.85;5.35;;;;;;;;;;4594474;27;20032;-64
2023/01/29 01:28:27;;;;;;;6.00;5.50;;;;;;;;;;4596856;27;20093;-65
2023/01/29 01:30:37;;;;;;;6.07;5.55;;;;;;;;;;4594622;27;20116;-64
2023/01/29 01:32:48;;;;;;;5.85;5.35;;;;;;;;;;4593878;27;20044;-64
2023/01/29 01:34:58;;;;;;;5.95;5.45;;;;;;;;;;4597375;27;20127;-63
2023/01/29 01:37:08;;;;;;;5.70;5.20;;;;;;;;;;4597343;27;20031;-63
2023/01/29 01:39:19;;;;;;;6.00;5.50;;;;;;;;;;4594931;27;20054;-64
2023/01/29 01:41:29;;;;;;;5.85;5.35;;;;;;;;;;4595596;27;20086;-64
2023/01/29 01:43:48;;;;;;;5.63;5.13;;;;;;;;;;4595494;27;20089;-64
2023/01/29 01:45:59;;;;;;;5.88;5.38;;;;;;;;;;4596460;27;20035;-64
2023/01/29 01:48:20;;;;;;;5.50;5.10;;;;;;;;;;4594056;27;20036;-63
2023/01/29 01:50:36;;;;;;;5.50;5.00;;;;;;;;;;4595289;27;20150;-64
2023/01/29 01:52:50;;;;;;;5.57;5.07;;;;;;;;;;4596203;27;20039;-64
2023/01/29 01:55:01;;;;;;;5.75;5.20;;;;;;;;;;4595782;27;20015;-64
2023/01/29 01:57:17;;;;;;;5.97;5.47;;;;;;;;;;4594910;27;20511;-64
2023/01/29 01:59:28;;;;;;;5.88;5.38;;;;;;;;;;4596678;27;20039;-64
2023/01/29 02:01:41;;;;;;;5.95;5.45;;;;;;;;;;4596072;27;20031;-64
2023/01/29 02:09:37;;;;;;;6.03;5.53;;;;;;;;;;4596800;27;20035;-63
2023/01/29 02:11:47;;;;;;;5.90;5.40;;;;;;;;;;4594962;27;20043;-63
2023/01/29 02:13:58;;;;;;;6.10;5.60;;;;;;;;;;4596527;27;20032;-63
2023/01/29 02:16:09;;;;;;;6.22;5.72;;;;;;;;;;4596134;27;20098;-64
2023/01/29 02:18:20;;;;;;;6.10;5.60;;;;;;;;;;4594200;27;20574;-63
2023/01/29 02:20:33;;;;;;;6.00;5.50;;;;;;;;;;4595915;27;20043;-62
2023/01/29 02:22:53;;;;;;;5.88;5.38;;;;;;;;;;4594188;27;20031;-64
2023/01/29 02:25:09;;;;;;;5.88;5.38;;;;;;;;;;4595478;27;20614;-64
2023/01/29 02:27:23;;;;;;;5.35;4.95;;;;;;;;;;4596049;27;20032;-64
2023/01/29 02:29:36;;;;;;;5.80;5.30;;;;;;;;;;4594923;27;20038;-63
2023/01/29 02:32:06;;;;;;;5.65;5.15;;;;;;;;;;4593091;27;20810;-64
2023/01/29 02:34:19;;;;;;;5.55;5.05;;;;;;;;;;4593729;27;20038;-63
2023/01/29 02:36:34;;;;;;;5.63;5.13;;;;;;;;;;4592184;27;20039;-65
2023/01/29 02:39:11;;;;;;;5.00;4.60;;;;;;;;;;4593711;27;20048;-63
2023/01/29 02:41:22;;;;;;;4.85;4.45;;;;;;;;;;4593697;27;20600;-63
2023/01/29 02:43:51;;;;;;;5.40;4.90;;;;;;;;;;4595695;27;20033;-63
2023/01/29 02:46:07;;;;;;;4.90;4.50;;;;;;;;;;4597068;27;20124;-63
2023/01/29 02:48:19;;;;;;;5.13;4.72;;;;;;;;;;4597482;27;21227;-63
2023/01/29 02:50:43;;;;;;;5.47;4.97;;;;;;;;;;4595242;27;20046;-65
2023/01/29 02:53:04;;;;;;;5.00;4.60;;;;;;;;;;4594752;27;20077;-63
2023/01/29 02:55:18;;;;;;;5.20;4.78;;;;;;;;;;4575285;27;20028;-63
2023/01/29 02:57:34;;;;;;;5.22;4.82;;;;;;;;;;4593977;27;20462;-63
2023/01/29 02:59:48;;;;;;;4.80;4.40;;;;;;;;;;4592320;27;20031;-63
2023/01/29 03:02:04;;;;;;;4.60;4.20;;;;;;;;;;4576779;27;20036;-63
2023/01/29 03:04:19;;;;;;;4.55;4.18;;;;;;;;;;4594151;27;20035;-63
2023/01/29 03:06:31;;;;;;;4.93;4.43;;;;;;;;;;4595157;27;20171;-63
2023/01/29 03:08:44;;;;;;;5.45;5.03;;;;;;;;;;4580831;27;20791;-63
2023/01/29 03:11:00;;;;;;;4.70;4.30;;;;;;;;;;4596129;27;20129;-64
2023/01/29 03:13:16;;;;;;;4.78;4.38;;;;;;;;;;4594799;27;20081;-63
2023/01/29 03:15:30;;;;;;;5.00;4.50;;;;;;;;;;4601521;27;20039;-64
2023/01/29 03:18:05;;;;;;;4.65;4.25;;;;;;;;;;4595700;27;20946;-64
2023/01/29 03:20:17;;;;;;;5.20;4.80;;;;;;;;;;4583482;27;20039;-63
2023/01/29 03:22:28;;;;;;;4.70;4.30;;;;;;;;;;4595913;27;20039;-63
2023/01/29 03:32:45;;;;;;;5.10;4.70;;;;;;;;;;4593802;27;21256;-63
2023/01/29 03:35:01;;;;;;;4.65;4.25;;;;;;;;;;4595426;27;20036;-63
2023/01/29 03:37:19;;;;;;;5.43;4.93;;;;;;;;;;4574268;27;20054;-64
2023/01/29 03:39:29;;;;;;;4.63;4.22;;;;;;;;;;4593010;27;20130;-63
2023/01/29 03:41:49;;;;;;;4.70;4.30;;;;;;;;;;4595336;27;20177;-63
2023/01/29 03:43:59;;;;;;;4.97;4.57;;;;;;;;;;4581137;27;20503;-65
2023/01/29 03:46:17;;;;;;;5.25;4.75;;;;;;;;;;4573127;27;20020;-63
2023/01/29 03:48:43;;;;;;;4.65;4.25;;;;;;;;;;4592899;27;21101;-63
2023/01/29 03:50:57;;;;;;;5.03;4.53;;;;;;;;;;4593677;27;20129;-64
2023/01/29 03:53:08;;;;;;;4.85;4.45;;;;;;;;;;4592675;27;20038;-63
2023/01/29 03:55:24;;;;;;;4.85;4.45;;;;;;;;;;4595390;27;20043;-63
2023/01/29 03:57:34;;;;;;;5.00;4.60;;;;;;;;;;4592836;27;20043;-63
2023/01/29 04:00:04;;;;;;;4.72;4.32;;;;;;;;;;4594673;27;20066;-63
2023/01/29 04:02:37;;;;;;;4.90;4.50;;;;;;;;;;4591830;27;20594;-63
2023/01/29 04:04:56;;;;;;;4.90;4.47;;;;;;;;;;4591550;27;20257;-63
2023/01/29 04:07:11;;;;;;;4.93;4.53;;;;;;;;;;4593935;27;20123;-63
2023/01/29 04:09:26;;;;;;;4.72;4.30;;;;;;;;;;4591315;27;20092;-64
2023/01/29 04:11:38;;;;;;;4.68;4.28;;;;;;;;;;4610697;27;20044;-63
2023/01/29 04:13:50;;;;;;;4.25;3.85;;;;;;;;;;4593476;27;20050;-63
2023/01/29 04:16:04;;;;;;;4.72;4.32;;;;;;;;;;4593147;27;20031;-63
2023/01/29 04:18:33;;;;;;;4.82;4.43;;;;;;;;;;4593451;27;20036;-63
2023/01/29 04:20:50;;;;;;;5.20;4.70;;;;;;;;;;4581075;27;20028;-64
2023/01/29 04:23:00;;;;;;;5.65;5.15;;;;;;;;;;4580369;27;20040;-63
2023/01/29 04:25:14;;;;;;;6.00;5.50;;;;;;;;;;4594809;27;20040;-64
2023/01/29 04:27:28;;;;;;;5.53;5.03;;;;;;;;;;4609497;27;20858;-64
2023/01/29 04:29:53;;;;;;;5.57;5.13;;;;;;;;;;4592273;27;20101;-63
2023/01/29 04:32:03;;;;;;;5.47;4.97;;;;;;;;;;4581261;27;20154;-63
2023/01/29 04:34:16;;;;;;;5.47;4.97;;;;;;;;;;4581479;27;20111;-63
2023/01/29 04:36:31;;;;;;;5.82;5.32;;;;;;;;;;4593341;27;20825;-63
2023/01/29 04:38:56;;;;;;;5.25;4.80;;;;;;;;;;4582479;27;21005;-63
2023/01/29 04:41:07;;;;;;;5.82;5.32;;;;;;;;;;4598421;27;20032;-63
2023/01/29 04:43:21;;;;;;;5.00;4.60;;;;;;;;;;4597127;27;20053;-63
2023/01/29 04:45:40;;;;;;;5.10;4.70;;;;;;;;;;4596412;27;20969;-63
2023/01/29 04:48:03;;;;;;;5.40;4.90;;;;;;;;;;4596934;27;20039;-64
2023/01/29 04:50:25;;;;;;;5.63;5.13;;;;;;;;;;4595533;27;20574;-63
2023/01/29 04:52:43;;;;;;;5.25;4.78;;;;;;;;;;4597256;27;20031;-63
2023/01/29 04:55:29;;;;;;;5.30;4.85;;;;;;;;;;4597769;27;20789;-63
2023/01/29 04:57:46;;;;;;;5.38;4.88;;;;;;;;;;4572622;27;20040;-63
2023/01/29 05:00:04;;;;;;;5.10;4.70;;;;;;;;;;4582088;27;20044;-63
2023/01/29 05:02:14;;;;;;;5.40;4.90;;;;;;;;;;4595992;27;20967;-63
2023/01/29 05:04:25;;;;;;;4.97;4.57;;;;;;;;;;4598061;27;20035;-63
2023/01/29 05:06:36;;;;;;;4.88;4.47;;;;;;;;;;4597614;27;20623;-63
2023/01/29 05:08:48;;;;;;;5.03;4.63;;;;;;;;;;4598022;27;20059;-63
2023/01/29 05:10:59;;;;;;;5.07;4.68;;;;;;;;;;4596773;27;20027;-64
2023/01/29 05:13:10;;;;;;;5.10;4.60;;;;;;;;;;4595953;27;20035;-63
2023/01/29 05:15:23;;;;;;;5.47;4.97;;;;;;;;;;4596730;27;20608;-64
2023/01/29 05:17:34;;;;;;;4.80;4.40;;;;;;;;;;4595212;27;20039;-63
2023/01/29 05:19:44;;;;;;;4.82;4.43;;;;;;;;;;4597480;27;20282;-62
2023/01/29 05:21:55;;;;;;;5.05;4.65;;;;;;;;;;4598049;27;20171;-63
2023/01/29 05:24:08;;;;;;;4.78;4.38;;;;;;;;;;4595271;27;20321;-64
2023/01/29 05:28:47;;;;;;;5.00;4.60;;;;;;;;;;4597743;27;20070;-63
2023/01/29 05:30:58;;;;;;;4.97;4.57;;;;;;;;;;4595413;27;20031;-64
2023/01/29 05:33:13;;;;;;;4.68;4.28;;;;;;;;;;4594746;27;20047;-62
2023/01/29 05:35:24;;;;;;;4.80;4.40;;;;;;;;;;4594960;27;20043;-64
2023/01/29 05:37:34;;;;;;;5.03;4.63;;;;;;;;;;4595689;27;20023;-63
2023/01/29 05:39:45;;;;;;;5.18;4.68;;;;;;;;;;4596136;27;20036;-63
2023/01/29 05:41:55;;;;;;;5.22;4.70;;;;;;;;;;4595252;27;20038;-63
2023/01/29 05:44:05;;;;;;;5.30;4.85;;;;;;;;;;4596945;27;20581;-63
2023/01/29 05:46:15;;;;;;;4.75;4.35;;;;;;;;;;4595684;27;20062;-63
2023/01/29 05:48:31;;;;;;;4.95;4.55;;;;;;;;;;4596544;27;20548;-63
2023/01/29 05:50:41;;;;;;;5.50;5.00;;;;;;;;;;4595682;27;20162;-63
2023/01/29 05:52:58;;;;;;;5.53;5.03;;;;;;;;;;4596543;27;20023;-63
2023/01/29 05:55:09;;;;;;;5.25;4.75;;;;;;;;;;4596217;27;20031;-63
2023/01/29 05:57:19;;;;;;;5.22;4.72;;;;;;;;;;4596864;27;20040;-63
2023/01/29 05:59:30;;;;;;;4.93;4.53;;;;;;;;;;4595501;27;20158;-63
2023/01/29 06:01:40;;;;;;;5.05;4.60;;;;;;;;;;4596195;27;20498;-63
2023/01/29 06:03:50;;;;;;;4.82;4.43;;;;;;;;;;4595868;27;20547;-63
2023/01/29 06:06:01;;;;;;;4.95;4.55;;;;;;;;;;4595347;27;20037;-64
2023/01/29 06:08:12;;;;;;;5.40;4.90;;;;;;;;;;4593427;27;20031;-64
2023/01/29 06:10:22;;;;;;;4.80;4.40;;;;;;;;;;4596800;27;20587;-63
2023/01/29 06:12:32;;;;;;;5.25;4.75;;;;;;;;;;4596741;27;20036;-63
2023/01/29 06:14:43;;;;;;;5.15;4.65;;;;;;;;;;4595388;27;20503;-63
2023/01/29 06:16:53;;;;;;;5.40;4.90;;;;;;;;;;4594074;27;20376;-63
2023/01/29 06:19:03;;;;;;;5.70;5.20;;;;;;;;;;4595822;27;20044;-63
2023/01/29 06:21:13;;;;;;;5.18;4.68;;;;;;;;;;4594689;27;20044;-63
2023/01/29 06:23:24;;;;;;;5.45;4.90;;;;;;;;;;4595212;27;20074;-64
2023/01/29 06:25:34;;;;;;;5.20;4.80;;;;;;;;;;4595982;27;20028;-63
2023/01/29 06:27:44;;;;;;;5.72;5.22;;;;;;;;;;4595696;27;20467;-62
2023/01/29 06:29:55;;;;;;;5.47;4.97;;;;;;;;;;4594663;27;20092;-63
2023/01/29 06:32:05;;;;;;;5.40;4.90;;;;;;;;;;4597452;27;20046;-63
2023/01/29 06:34:15;;;;;;;5.30;4.80;;;;;;;;;;4596446;27;20036;-63
2023/01/29 06:36:25;;;;;;;4.95;4.55;;;;;;;;;;4594729;27;20135;-63
2023/01/29 06:38:36;;;;;;;5.50;5.00;;;;;;;;;;4593426;27;20201;-65
2023/01/29 06:40:46;;;;;;;5.05;4.63;;;;;;;;;;4595643;27;20027;-63
2023/01/29 06:42:58;;;;;;;4.90;4.40;;;;;;;;;;4596038;27;20032;-63
2023/01/29 06:45:09;;;;;;;5.13;4.63;;;;;;;;;;4595862;27;20038;-62
2023/01/29 06:47:19;;;;;;;5.15;4.68;;;;;;;;;;4595796;27;20038;-64
2023/01/29 06:49:30;;;;;;;5.32;4.82;;;;;;;;;;4593931;27;20067;-63
2023/01/29 06:51:40;;;;;;;5.07;4.63;;;;;;;;;;4595372;27;20036;-65
2023/01/29 06:53:50;;;;;;;5.00;4.60;;;;;;;;;;4593727;27;20229;-63
2023/01/29 06:56:01;;;;;;;5.00;4.60;;;;;;;;;;4594711;27;20047;-63
2023/01/29 06:58:11;;;;;;;5.50;5.00;;;;;;;;;;4593813;27;20028;-63
2023/01/29 07:00:21;;;;;;;5.25;4.75;;;;;;;;;;4594314;27;20028;-63
2023/01/29 07:02:32;;;;;;;5.05;4.60;;;;;;;;;;4592736;27;20043;-63
2023/01/29 07:04:42;;;;;;;5.35;4.85;;;;;;;;;;4596075;27;20038;-62
2023/01/29 07:06:52;;;;;;;5.30;4.80;;;;;;;;;;4595796;27;20046;-64
2023/01/29 07:09:03;;;;;;;5.50;5.00;;;;;;;;;;4594734;27;20089;-63
2023/01/29 07:11:13;;;;;;;5.38;4.88;;;;;;;;;;4595222;27;20114;-62
2023/01/29 07:13:23;;;;;;;5.30;4.80;;;;;;;;;;4594342;27;20040;-64
2023/01/29 07:15:34;;;;;;;5.10;4.70;;;;;;;;;;4594551;27;20537;-63
2023/01/29 07:17:57;;;;;;;4.95;4.50;;;;;;;;;;4608958;27;20101;-64
2023/01/29 07:20:07;;;;;;;5.30;4.80;;;;;;;;;;4591597;27;20032;-63
2023/01/29 07:22:18;;;;;;;5.28;4.78;;;;;;;;;;4594204;27;20054;-63
2023/01/29 07:24:28;;;;;;;5.45;4.95;;;;;;;;;;4593386;27;20077;-64
2023/01/29 07:26:38;;;;;;;5.63;5.13;;;;;;;;;;4594642;27;20492;-64
2023/01/29 07:28:49;;;;;;;5.47;4.97;;;;;;;;;;4592763;27;20105;-65
2023/01/29 07:30:59;;;;;;;5.03;4.53;;;;;;;;;;4592895;27;20035;-64
2023/01/29 07:33:09;;;;;;;5.25;4.75;;;;;;;;;;4592105;27;20031;-64
2023/01/29 07:35:20;;;;;;;5.70;5.10;;;;;;;;;;4593708;27;20035;-64
2023/01/29 07:37:30;;;;;;;5.10;4.60;;;;;;;;;;4592374;27;20477;-64
2023/01/29 07:39:40;;;;;;;4.97;4.53;;;;;;;;;;4592464;27;20066;-64
2023/01/29 07:41:51;;;;;;;5.50;5.00;;;;;;;;;;4591470;27;20039;-65
2023/01/29 07:44:01;;;;;;;5.30;4.80;;;;;;;;;;4593360;27;20093;-63
2023/01/29 07:46:11;;;;;;;5.70;5.20;;;;;;;;;;4590135;27;20039;-64
2023/01/29 07:48:22;;;;;;;5.57;5.07;;;;;;;;;;4591487;27;20067;-64
2023/01/29 07:50:33;;;;;;;5.32;4.82;;;;;;;;;;4591164;27;20051;-64
2023/01/29 07:52:43;;;;;;;5.47;4.97;;;;;;;;;;4591557;27;20028;-63
2023/01/29 07:54:54;;;;;;;6.55;5.95;;;;;;;;;;4592409;27;20032;-64
2023/01/29 07:57:04;;;;;;;6.35;5.75;;;;;;;;;;4592866;27;20027;-64
2023/01/29 07:59:15;;;;;;;5.88;5.32;;;;;;;;;;4591712;27;20038;-64
2023/01/29 08:01:25;;;;;;;5.60;5.10;;;;;;;;;;4597859;27;20035;-63
2023/01/29 08:03:35;;;;;;;5.63;5.13;;;;;;;;;;4592492;27;20039;-64
2023/01/29 08:05:46;;;;;;;5.25;4.75;;;;;;;;;;4592294;27;20027;-64
2023/01/29 08:07:56;;;;;;;5.40;4.90;;;;;;;;;;4592577;27;20036;-64
2023/01/29 08:10:07;;;;;;;5.30;4.80;;;;;;;;;;4593969;27;20035;-64
2023/01/29 08:12:17;;;;;;;5.68;5.18;;;;;;;;;;4595721;27;20551;-63
2023/01/29 08:14:28;;;;;;;5.82;5.32;;;;;;;;;;4595685;27;20482;-64
2023/01/29 08:16:38;;;;;;;5.65;5.15;;;;;;;;;;4597413;27;20044;-64
2023/01/29 08:18:48;;;;;;;5.90;5.40;;;;;;;;;;4595175;27;20116;-64
2023/01/29 08:21:00;;;;;;;5.63;5.13;;;;;;;;;;4593959;27;20066;-64
2023/01/29 08:23:12;;;;;;;5.68;5.18;;;;;;;;;;4595081;27;20138;-64
2023/01/29 08:25:22;;;;;;;5.80;5.20;;;;;;;;;;4595779;27;20036;-64
2023/01/29 08:27:33;;;;;;;5.75;5.25;;;;;;;;;;4594876;27;20043;-64
2023/01/29 08:29:43;;;;;;;5.90;5.40;;;;;;;;;;4596163;27;20019;-64
2023/01/29 08:31:53;;;;;;;5.82;5.30;;;;;;;;;;4595181;27;20518;-64
2023/01/29 08:34:04;;;;;;;6.13;5.55;;;;;;;;;;4596295;27;20077;-64
2023/01/29 08:36:14;;;;;;;5.78;5.28;;;;;;;;;;4593561;27;20096;-65
2023/01/29 08:38:25;;;;;;;5.65;5.15;;;;;;;;;;4595844;27;20047;-65
2023/01/29 08:40:35;;;;;;;5.85;5.35;;;;;;;;;;4597638;27;20019;-62
2023/01/29 08:42:45;;;;;;;5.40;4.90;;;;;;;;;;4595462;27;20047;-63
2023/01/29 08:44:55;;;;;;;5.57;5.07;;;;;;;;;;4595960;27;20108;-63
2023/01/29 08:47:06;;;;;;;5.50;5.00;;;;;;;;;;4596101;27;20036;-65
2023/01/29 08:49:16;;;;;;;5.35;4.85;;;;;;;;;;4596470;27;20039;-64
2023/01/29 08:51:27;;;;;;;5.53;5.03;;;;;;;;;;4594612;27;20043;-65
2023/01/29 08:53:37;;;;;;;5.13;4.63;;;;;;;;;;4595900;27;20119;-64
2023/01/29 08:55:47;;;;;;;5.22;4.72;;;;;;;;;;4595270;27;20075;-64
2023/01/29 08:57:57;;;;;;;5.40;4.88;;;;;;;;;;4595559;27;20036;-65
2023/01/29 09:00:09;;;;;;;5.00;4.60;;;;;;;;;;4593994;27;20036;-65
2023/01/29 09:02:19;;;;;;;5.22;4.80;;;;;;;;;;4582612;27;20028;-65
2023/01/29 09:04:29;;;;;;;5.00;4.60;;;;;;;;;;4595951;27;20036;-64
2023/01/29 09:06:39;;;;;;;5.22;4.80;;;;;;;;;;4594602;27;20140;-64
2023/01/29 09:08:50;;;;;;;5.35;4.70;;;;;;;;;;4595044;27;20035;-64
2023/01/29 09:11:00;;;;;;;5.38;4.88;;;;;;;;;;4594431;27;20039;-63
2023/01/29 09:13:11;;;;;;;5.50;5.00;;;;;;;;;;4594921;27;20032;-63
2023/01/29 09:15:21;;;;;;;5.38;4.88;;;;;;;;;;4595347;27;20047;-63
2023/01/29 09:17:32;;;;;;;5.32;4.82;;;;;;;;;;4595780;27;20832;-63
2023/01/29 09:19:42;;;;;;;5.43;4.93;;;;;;;;;;4595043;27;20086;-63
2023/01/29 09:21:52;;;;;;;5.70;5.20;;;;;;;;;;4594303;27;20039;-63
2023/01/29 09:24:03;;;;;;;5.75;5.25;;;;;;;;;;4595334;27;20062;-63
2023/01/29 09:26:13;;;;;;;5.65;5.15;;;;;;;;;;4594558;27;20032;-63
2023/01/29 09:28:23;;;;;;;5.70;5.20;;;;;;;;;;4594909;27;20062;-63
2023/01/29 09:30:36;;;;;;;5.45;4.95;;;;;;;;;;4592961;27;20123;-65
2023/01/29 09:32:46;;;;;;;5.70;5.20;;;;;;;;;;4576941;27;20204;-63
2023/01/29 09:34:56;;;;;;;5.72;5.22;;;;;;;;;;4595749;27;20039;-63
2023/01/29 09:37:07;;;;;;;5.82;5.28;;;;;;;;;;4590276;27;20039;-64
2023/01/29 09:39:17;;;;;;;5.22;4.72;;;;;;;;;;4594024;27;20498;-66
2023/01/29 09:41:34;;;;;;;5.60;5.10;;;;;;;;;;4575647;27;20032;-65
2023/01/29 09:43:47;;;;;;;5.45;4.95;;;;;;;;;;4595461;27;20039;-63
2023/01/29 09:46:00;;;;;;;5.55;5.05;;;;;;;;;;4595547;27;20097;-63
2023/01/29 09:48:12;;;;;;;6.07;5.47;;;;;;;;;;4593843;27;20047;-65
2023/01/29 09:50:25;;;;;;;5.28;4.78;;;;;;;;;;4596295;27;20027;-65
2023/01/29 09:52:41;;;;;;;5.38;4.88;;;;;;;;;;4581738;27;20039;-64
2023/01/29 09:55:10;;;;;;;5.25;4.78;;;;;;;;;;4592523;27;20040;-64
2023/01/29 09:57:24;;;;;;;5.80;5.30;;;;;;;;;;4593812;27;20703;-65
2023/01/29 09:59:34;;;;;;;5.60;5.10;;;;;;;;;;4595091;27;20043;-64
2023/01/29 10:02:05;;;;;;;5.47;4.97;;;;;;;;;;4594657;27;20042;-64
2023/01/29 10:04:44;;;;;;;5.55;5.03;;;;;;;;;;4595717;27;20048;-67
2023/01/29 10:06:57;;;;;;;5.50;5.00;;;;;;;;;;4589316;27;20054;-68
2023/01/29 10:09:26;;;;;;;5.40;4.90;;;;;;;;;;4595873;27;20058;-68
2023/01/29 10:11:59;;;;;;;5.20;4.70;;;;;;;;;;4595287;27;20031;-68
2023/01/29 10:14:28;;;;;;;4.95;4.45;;;;;;;;;;4594028;27;21231;-68
2023/01/29 10:16:44;;;;;;;5.10;4.63;;;;;;;;;;4595463;27;20083;-67
2023/01/29 10:19:13;;;;;;;4.70;4.30;;;;;;;;;;4594448;27;20094;-68
2023/01/29 10:21:24;;;;;;;5.28;4.78;;;;;;;;;;4582050;27;20110;-67
2023/01/29 10:23:39;;;;;;;5.60;5.00;;;;;;;;;;4595822;27;20084;-67
2023/01/29 10:25:50;;;;;;;4.85;4.43;;;;;;;;;;4595397;27;20674;-65
2023/01/29 10:28:00;;;;;;;5.57;5.07;;;;;;;;;;4587655;27;20042;-65
2023/01/29 10:30:17;;;;;;;5.45;4.95;;;;;;;;;;4593696;27;20603;-67
2023/01/29 10:32:28;;;;;;;5.90;5.30;;;;;;;;;;4591208;27;20081;-69
2023/01/29 10:34:44;;;;;;;5.20;4.70;;;;;;;;;;4593794;27;20627;-68
2023/01/29 10:36:55;;;;;;;5.13;4.63;;;;;;;;;;4592948;27;20035;-69
2023/01/29 10:39:11;;;;;;;5.45;4.95;;;;;;;;;;4594120;27;20182;-65
2023/01/29 10:41:24;;;;;;;5.60;5.10;;;;;;;;;;4593559;27;20042;-67
2023/01/29 10:43:50;;;;;;;5.80;5.20;;;;;;;;;;4594002;27;20044;-64
2023/01/29 10:46:13;;;;;;;6.15;5.57;;;;;;;;;;4593921;27;20035;-65
2023/01/29 10:48:33;;;;;;;6.32;5.38;;;;;;;;;;4592533;27;20042;-63
2023/01/29 10:50:43;;;;;;;5.40;4.90;;;;;;;;;;4591655;27;20070;-62
2023/01/29 10:52:53;;;;;;;5.57;5.07;;;;;;;;;;4594052;27;20576;-62
2023/01/29 10:55:10;;;;;;;5.13;4.63;;;;;;;;;;4590069;27;20376;-62
2023/01/29 10:57:39;;;;;;;5.63;5.03;;;;;;;;;;4593296;27;20135;-64
2023/01/29 10:59:49;;;;;;;5.90;5.30;;;;;;;;;;4594309;27;20027;-67
2023/01/29 11:02:02;;;;;;;6.20;5.60;;;;;;;;;;4593126;27;20036;-69
2023/01/29 11:04:12;;;;;;;6.70;5.93;;;;;;;;;;4591559;27;20562;-66
2023/01/29 11:06:35;;;;;;;8.60;6.72;;;;;;;;;;4594866;27;20044;-65
2023/01/29 11:08:52;;;;;;;6.38;5.78;;;;;;;;;;4580003;27;20070;-63
2023/01/29 11:11:07;;;;;;;5.55;5.05;;;;;;;;;;4593878;27;20032;-65
2023/01/29 11:13:17;;;;;;;6.03;5.43;;;;;;;;;;4592731;27;20043;-63
2023/01/29 11:15:31;;;;;;;5.65;5.15;;;;;;;;;;4592709;27;20471;-65
2023/01/29 11:17:59;;;;;;;5.28;4.78;;;;;;;;;;4593805;27;20044;-63
2023/01/29 11:20:25;;;;;;;5.40;4.90;;;;;;;;;;4592914;27;20119;-62
2023/01/29 11:22:35;;;;;;;5.53;5.03;;;;;;;;;;4593621;27;20047;-63
2023/01/29 11:24:46;;;;;;;5.32;4.75;;;;;;;;;;4593159;27;20051;-60
2023/01/29 11:26:58;;;;;;;4.93;4.47;;;;;;;;;;4593325;27;20375;-61
2023/01/29 11:29:37;;;;;;;5.05;4.65;;;;;;;;;;4592640;27;20100;-60
2023/01/29 11:31:47;;;;;;;5.50;4.93;;;;;;;;;;4582628;27;20121;-62
2023/01/29 11:34:16;;;;;;;4.78;4.28;;;;;;;;;;4593223;27;20032;-64
2023/01/29 11:36:27;;;;;;;5.30;4.80;;;;;;;;;;4592225;27;20067;-64
2023/01/29 11:38:37;;;;;;;5.38;4.85;;;;;;;;;;4593301;27;20118;-65
2023/01/29 11:40:47;;;;;;;5.75;5.15;;;;;;;;;;4595123;27;20087;-64
2023/01/29 11:43:10;;;;;;;5.18;4.68;;;;;;;;;;4594985;27;20046;-65
2023/01/29 11:45:28;;;;;;;5.50;5.00;;;;;;;;;;4592882;27;20575;-65
2023/01/29 11:47:38;;;;;;;5.22;4.72;;;;;;;;;;4591759;27;20049;-65
2023/01/29 11:49:50;;;;;;;5.43;4.80;;;;;;;;;;4592093;27;20036;-65
2023/01/29 11:52:02;;;;;;;5.35;4.85;;;;;;;;;;4591945;27;20039;-65
2023/01/29 11:54:16;;;;;;;5.10;4.60;;;;;;;;;;4592574;27;20154;-65
2023/01/29 11:56:32;;;;;;;4.90;4.40;;;;;;;;;;4592854;27;20051;-65
2023/01/29 11:58:44;;;;;;;5.60;5.10;;;;;;;;;;4592844;27;20101;-65
2023/01/29 12:00:55;;;;;;;5.28;4.78;;;;;;;;;;4592521;27;20027;-65
2023/01/29 12:03:05;;;;;;;5.20;4.80;;;;;;;;;;4593034;27;20046;-65
2023/01/29 12:05:17;;;;;;;5.43;4.93;;;;;;;;;;4593418;27;20051;-65
2023/01/29 12:07:27;;;;;;;5.38;4.88;;;;;;;;;;4592493;27;20130;-65
2023/01/29 12:09:38;;;;;;;5.22;4.72;;;;;;;;;;4593437;27;20027;-65
2023/01/29 12:11:48;;;;;;;5.45;4.95;;;;;;;;;;4589285;27;20075;-65
2023/01/29 12:14:00;;;;;;;5.47;4.97;;;;;;;;;;4593786;27;20046;-64
2023/01/29 12:16:25;;;;;;;5.38;4.88;;;;;;;;;;4590014;27;20035;-64
2023/01/29 12:18:38;;;;;;;5.18;4.68;;;;;;;;;;4592736;27;20585;-65
2023/01/29 12:20:53;;;;;;;5.50;5.00;;;;;;;;;;4591261;27;20139;-65
2023/01/29 12:23:23;;;;;;;5.10;4.60;;;;;;;;;;4592410;27;20055;-64
2023/01/29 12:25:33;;;;;;;5.40;4.90;;;;;;;;;;4592306;27;20640;-65
2023/01/29 12:27:52;;;;;;;4.90;4.40;;;;;;;;;;4591673;27;20445;-65
2023/01/29 12:30:03;;;;;;;4.78;4.38;;;;;;;;;;4588905;27;20859;-65
2023/01/29 12:32:34;;;;;;;5.25;4.75;;;;;;;;;;4591701;27;20709;-65
2023/01/29 12:34:47;;;;;;;4.80;4.30;;;;;;;;;;4592400;27;20032;-65
2023/01/29 12:37:09;;;;;;;5.10;4.60;;;;;;;;;;4592272;27;20039;-65
2023/01/29 12:39:20;;;;;;;5.03;4.53;;;;;;;;;;4593497;27;20050;-64
2023/01/29 12:41:46;;;;;;;5.75;5.18;;;;;;;;;;4592664;27;20039;-64
2023/01/29 12:44:01;;;;;;;5.50;5.00;;;;;;;;;;4594096;27;20035;-65
2023/01/29 12:46:21;;;;;;;5.32;4.82;;;;;;;;;;4592320;27;20034;-64
2023/01/29 12:48:37;;;;;;;5.45;4.95;;;;;;;;;;4591930;27;20053;-64
2023/01/29 12:50:48;;;;;;;5.38;4.88;;;;;;;;;;4593140;27;20039;-65
2023/01/29 12:53:01;;;;;;;5.20;4.70;;;;;;;;;;4592947;27;20548;-64
2023/01/29 12:55:20;;;;;;;4.90;4.40;;;;;;;;;;4592131;27;20043;-65
2023/01/29 12:57:33;;;;;;;5.20;4.70;;;;;;;;;;4594569;27;20671;-64
2023/01/29 12:59:47;;;;;;;5.13;4.63;;;;;;;;;;4583673;27;20038;-65
2023/01/29 13:02:05;;;;;;;5.40;4.60;;;;;;;;;;4596228;27;20142;-64
2023/01/29 13:04:28;;;;;;;4.63;4.22;;;;;;;;;;4594811;27;20035;-64
2023/01/29 13:06:44;;;;;;;5.00;4.50;;;;;;;;;;4595069;27;20044;-65
2023/01/29 13:08:57;;;;;;;5.20;4.70;;;;;;;;;;4595116;27;20040;-64
2023/01/29 13:11:21;;;;;;;4.50;4.10;;;;;;;;;;4596465;27;20265;-65
2023/01/29 13:13:51;;;;;;;4.72;4.32;;;;;;;;;;4596189;27;20731;-65
2023/01/29 13:16:04;;;;;;;4.97;4.47;;;;;;;;;;4595615;27;20756;-65
2023/01/29 13:18:37;;;;;;;4.82;4.32;;;;;;;;;;4594775;27;20549;-65
2023/01/29 13:20:48;;;;;;;4.80;4.40;;;;;;;;;;4591278;27;20103;-65
2023/01/29 13:23:09;;;;;;;4.80;4.35;;;;;;;;;;4594481;27;20475;-64
2023/01/29 13:25:20;;;;;;;5.07;4.57;;;;;;;;;;4595817;27;20649;-65
2023/01/29 13:27:36;;;;;;;4.50;4.10;;;;;;;;;;4595855;27;20039;-65
2023/01/29 13:29:46;;;;;;;5.07;4.57;;;;;;;;;;4594773;27;20663;-65
2023/01/29 13:31:58;;;;;;;4.78;4.38;;;;;;;;;;4591278;27;20153;-65
2023/01/29 13:34:12;;;;;;;4.90;4.38;;;;;;;;;;4595539;27;20117;-65
2023/01/29 13:36:25;;;;;;;5.00;4.50;;;;;;;;;;4595662;27;20827;-65
2023/01/29 13:38:35;;;;;;;5.00;4.50;;;;;;;;;;4610856;27;20071;-65
2023/01/29 13:40:49;;;;;;;4.60;4.20;;;;;;;;;;4594890;27;20151;-65
2023/01/29 13:43:01;;;;;;;5.63;5.00;;;;;;;;;;4581542;27;20032;-65
2023/01/29 13:45:21;;;;;;;4.80;4.40;;;;;;;;;;4595904;27;20952;-65
2023/01/29 13:47:33;;;;;;;4.95;4.45;;;;;;;;;;4594336;27;20334;-64
2023/01/29 13:49:45;;;;;;;4.85;4.45;;;;;;;;;;4594138;27;20119;-65